Time;durP1;ratioP1;P1;durP2;ratioP2;P2;SDS_P1;SDS_P2;PMS_P1;PMS_P2;Temp;Humidity;BMP_temperature;BMP_pressure;BME280_temperature;BME280_humidity;BME280_pressure;Samples;Min_cycle;Max_cycle;Signal;HPM_P1;HPM_P2
2022/09/07 00:00:39;;;;;;;4.15;2.30;;;;;;;17.90;61.16;100598.03;5108274;28;20019;-29
2022/09/07 00:03:05;;;;;;;5.10;2.70;;;;;;;17.93;63.27;100603.75;5089554;28;20035;-33
2022/09/07 00:05:33;;;;;;;4.70;2.65;;;;;;;17.99;62.77;100597.31;5108047;28;20102;-31
2022/09/07 00:07:59;;;;;;;5.87;2.40;;;;;;;18.10;62.95;100608.22;5108488;28;20084;-30
2022/09/07 00:10:25;;;;;;;3.67;2.30;;;;;;;17.85;61.68;100591.50;5089427;28;20315;-30
2022/09/07 00:12:51;;;;;;;3.72;2.30;;;;;;;17.55;63.26;100600.06;5108161;28;20086;-31
2022/09/07 00:15:18;;;;;;;4.30;2.50;;;;;;;17.47;63.95;100590.53;5107834;28;20036;-32
2022/09/07 00:17:43;;;;;;;4.63;2.50;;;;;;;17.07;63.74;100590.84;5089804;28;20031;-30
2022/09/07 00:20:10;;;;;;;7.75;2.65;;;;;;;17.43;63.28;100599.41;5108066;28;20387;-32
2022/09/07 00:22:37;;;;;;;4.80;2.50;;;;;;;17.70;63.23;100577.03;5108096;28;20031;-33
2022/09/07 00:25:02;;;;;;;5.22;2.50;;;;;;;17.91;62.87;100584.28;5089039;28;20039;-30
2022/09/07 00:27:28;;;;;;;5.70;2.75;;;;;;;17.67;61.98;100600.75;5089711;28;20030;-29
2022/09/07 00:29:53;;;;;;;7.03;2.65;;;;;;;18.23;62.44;100597.00;5089775;28;20403;-29
2022/09/07 00:32:19;;;;;;;7.00;2.92;;;;;;;18.26;60.96;100580.28;5107666;28;20028;-30
2022/09/07 00:34:45;;;;;;;6.47;2.83;;;;;;;18.12;60.36;100595.28;5107764;28;20801;-28
2022/09/07 00:37:10;;;;;;;4.93;2.90;;;;;;;18.54;60.46;100608.06;5107478;28;20043;-32
2022/09/07 00:39:36;;;;;;;6.85;3.17;;;;;;;18.56;60.23;100581.59;5106972;28;20031;-31
2022/09/07 00:42:02;;;;;;;8.10;3.42;;;;;;;18.45;60.82;100607.72;5107752;28;20033;-27
2022/09/07 00:44:42;;;;;;;9.63;4.00;;;;;;;18.57;59.57;100612.94;5107850;28;20081;-28
2022/09/07 00:47:31;;;;;;;5.18;3.50;;;;;;;18.79;59.23;100599.34;5088898;28;20035;-29
2022/09/07 00:50:04;;;;;;;9.27;5.10;;;;;;;18.64;59.30;100583.81;5088989;28;20039;-28
2022/09/07 00:52:30;;;;;;;7.45;3.83;;;;;;;18.72;59.51;100609.53;5089110;28;20032;-30
2022/09/07 00:55:01;;;;;;;7.05;3.90;;;;;;;18.96;58.49;100601.88;5089226;28;20035;-30
2022/09/07 00:57:27;;;;;;;10.43;4.15;;;;;;;18.82;58.29;100609.66;5089206;28;20051;-35
2022/09/07 00:59:54;;;;;;;15.50;4.47;;;;;;;18.65;58.64;100598.94;5107386;28;20031;-28
2022/09/07 01:02:20;;;;;;;6.50;3.95;;;;;;;18.14;60.73;100587.75;5088914;28;20084;-28
2022/09/07 01:04:49;;;;;;;8.90;3.70;;;;;;;18.14;59.82;100596.66;5107102;28;20055;-27
2022/09/07 01:07:15;;;;;;;7.63;3.63;;;;;;;18.37;60.79;100608.19;5088665;28;20031;-29
2022/09/07 01:09:42;;;;;;;7.15;3.60;;;;;;;18.38;59.90;100578.22;5107555;28;20028;-27
2022/09/07 01:12:07;;;;;;;6.97;3.15;;;;;;;18.62;58.92;100588.66;5088833;28;20028;-29
2022/09/07 01:14:38;;;;;;;12.27;3.67;;;;;;;18.13;59.00;100583.44;5107186;28;20533;-28
2022/09/07 01:17:40;;;;;;;10.45;4.05;;;;;;;17.58;61.24;100610.34;5088391;28;20030;-29
2022/09/07 01:20:15;;;;;;;8.25;4.00;;;;;;;17.64;60.83;100601.25;5107606;28;20789;-28
2022/09/07 01:23:07;;;;;;;8.73;4.10;;;;;;;17.54;63.09;100605.72;5088778;28;20043;-31
2022/09/07 01:25:52;;;;;;;9.65;4.70;;;;;;;17.44;63.74;100615.28;5095893;28;20122;-28
2022/09/07 01:28:21;;;;;;;9.18;4.40;;;;;;;16.97;63.59;100612.25;5107655;28;20027;-28
2022/09/07 01:30:55;;;;;;;7.97;5.22;;;;;;;16.54;64.60;100589.50;5088628;28;20134;-32
2022/09/07 01:33:35;;;;;;;10.60;5.47;;;;;;;16.56;64.26;100611.63;5107011;28;20942;-31
2022/09/07 01:36:39;;;;;;;9.60;4.97;;;;;;;16.62;64.70;100606.06;5107223;28;20035;-30
2022/09/07 01:39:05;;;;;;;6.78;4.50;;;;;;;16.82;65.72;100616.38;5106121;28;20032;-33
2022/09/07 01:41:59;;;;;;;8.60;4.82;;;;;;;16.67;65.28;100613.38;5107162;28;20115;-29
2022/09/07 01:44:36;;;;;;;9.02;5.57;;;;;;;16.56;65.84;100606.22;5107253;28;20118;-27
2022/09/07 01:47:08;;;;;;;9.55;4.40;;;;;;;16.79;65.91;100603.34;5088576;28;20515;-28
2022/09/07 01:49:39;;;;;;;9.38;4.88;;;;;;;16.82;64.74;100610.97;5088830;28;20094;-28
2022/09/07 01:52:12;;;;;;;9.93;4.82;;;;;;;16.44;66.36;100592.84;5092484;28;20063;-27
2022/09/07 01:54:45;;;;;;;9.70;4.80;;;;;;;16.87;67.14;100600.25;5110687;28;20076;-28
2022/09/07 01:57:15;;;;;;;12.48;6.63;;;;;;;16.42;64.34;100587.69;5092380;28;20059;-27
2022/09/07 01:59:52;;;;;;;21.02;9.32;;;;;;;16.78;67.13;100609.81;5110732;28;20077;-28
2022/09/07 02:02:28;;;;;;;28.40;12.75;;;;;;;16.55;66.47;100600.03;5092143;28;20039;-32
2022/09/07 02:05:08;;;;;;;27.10;13.45;;;;;;;16.57;66.01;100597.06;5110609;28;20039;-32
2022/09/07 02:07:41;;;;;;;24.52;10.65;;;;;;;16.37;66.72;100602.97;5110884;28;20039;-28
2022/09/07 02:10:30;;;;;;;17.08;8.80;;;;;;;16.22;66.18;100598.97;5092323;28;20027;-30
2022/09/07 02:13:08;;;;;;;14.25;7.15;;;;;;;15.95;67.26;100590.66;5102598;28;20044;-28
2022/09/07 02:15:40;;;;;;;12.55;5.28;;;;;;;16.10;67.65;100592.84;5110521;28;20031;-29
2022/09/07 02:18:08;;;;;;;12.45;4.97;;;;;;;16.14;67.51;100588.59;5110627;28;20642;-28
2022/09/07 02:20:38;;;;;;;7.80;4.93;;;;;;;15.82;68.86;100590.97;5091915;28;20445;-31
2022/09/07 02:23:16;;;;;;;8.30;4.85;;;;;;;15.75;69.97;100590.28;5110002;28;20036;-28
2022/09/07 02:25:51;;;;;;;;;;;;;;;15.58;70.12;100604.47;5092120;28;20027;-30
2022/09/07 02:28:23;;;;;;;6.07;3.78;;;;;;;15.48;70.80;100588.94;5091846;28;19907;-28
2022/09/07 02:30:48;;;;;;;8.43;4.13;;;;;;;15.33;70.79;100582.47;5091852;28;20321;-31
2022/09/07 02:33:14;;;;;;;6.78;3.72;;;;;;;15.32;71.42;100567.38;5109643;28;20111;-28
2022/09/07 02:35:39;;;;;;;7.68;4.18;;;;;;;15.93;70.90;100587.41;5110239;28;20540;-32
2022/09/07 02:38:06;;;;;;;6.72;3.60;;;;;;;16.17;69.47;100571.97;5109904;28;20028;-31
2022/09/07 02:40:33;;;;;;;6.45;3.70;;;;;;;16.21;68.44;100553.47;5091625;28;20055;-36
2022/09/07 02:43:02;;;;;;;6.57;3.67;;;;;;;16.39;68.24;100573.94;5091802;28;20039;-31
2022/09/07 02:45:45;;;;;;;7.70;3.70;;;;;;;16.20;70.11;100582.25;5075216;28;20419;-30
2022/09/07 02:48:41;;;;;;;6.65;3.70;;;;;;;15.98;68.42;100576.75;5110068;28;20027;-29
2022/09/07 02:51:34;;;;;;;7.60;3.70;;;;;;;16.09;70.22;100582.31;5091618;28;20027;-27
2022/09/07 02:54:08;;;;;;;8.13;3.92;;;;;;;17.49;66.36;100584.91;5110012;28;20085;-28
2022/09/07 02:56:52;;;;;;;6.65;3.60;;;;;;;17.19;66.16;100590.72;5109746;28;20027;-32
2022/09/07 02:59:40;;;;;;;7.30;3.88;;;;;;;17.03;66.78;100600.47;5109424;28;20042;-28
2022/09/07 03:02:27;;;;;;;7.25;3.58;;;;;;;16.37;67.71;100594.91;5090510;28;20032;-29
2022/09/07 03:04:56;;;;;;;7.60;3.72;;;;;;;16.19;69.99;100595.94;5090974;28;20055;-29
2022/09/07 03:07:25;;;;;;;6.97;3.53;;;;;;;16.42;69.34;100597.66;5090764;28;20518;-29
2022/09/07 03:09:55;;;;;;;6.85;3.85;;;;;;;16.59;67.50;100594.94;5091267;28;20155;-28
2022/09/07 03:12:21;;;;;;;6.50;3.75;;;;;;;16.01;68.56;100578.94;5109514;28;20528;-29
2022/09/07 03:14:46;;;;;;;8.98;4.07;;;;;;;15.93;69.25;100592.78;5109577;28;20024;-27
2022/09/07 03:17:12;;;;;;;6.95;3.88;;;;;;;15.51;70.55;100595.75;5109049;28;20032;-31
2022/09/07 03:19:38;;;;;;;6.63;3.90;;;;;;;15.54;70.83;100583.69;5109248;28;20103;-31
2022/09/07 03:22:04;;;;;;;7.78;3.67;;;;;;;15.54;70.21;100573.75;5109016;28;20653;-28
2022/09/07 03:24:30;;;;;;;8.98;3.83;;;;;;;15.47;71.06;100594.59;5109275;28;20433;-28
2022/09/07 03:26:57;;;;;;;10.65;4.60;;;;;;;15.18;71.85;100564.97;5090895;28;20028;-27
2022/09/07 03:29:22;;;;;;;27.52;6.35;;;;;;;15.26;70.69;100572.69;5090488;28;20396;-29
2022/09/07 03:31:48;;;;;;;9.55;4.40;;;;;;;14.81;73.49;100589.44;5108915;28;20034;-31
2022/09/07 03:34:15;;;;;;;11.02;4.10;;;;;;;14.76;74.17;100578.56;5108809;28;20506;-28
2022/09/07 03:36:41;;;;;;;6.35;4.07;;;;;;;14.76;74.13;100585.81;5090243;28;20035;-28
2022/09/07 03:39:10;;;;;;;7.55;4.05;;;;;;;14.41;75.17;100587.38;5090275;28;20031;-29
2022/09/07 03:41:35;;;;;;;7.90;4.13;;;;;;;14.43;75.57;100596.03;5090459;28;20036;-27
2022/09/07 03:44:03;;;;;;;7.45;4.63;;;;;;;14.57;75.88;100611.97;5108584;28;20035;-28
2022/09/07 03:46:29;;;;;;;5.53;4.07;;;;;;;14.42;75.49;100591.69;5090447;28;20031;-28
2022/09/07 03:48:55;;;;;;;5.97;3.53;;;;;;;14.76;74.56;100604.59;5108552;28;20096;-32
2022/09/07 03:51:21;;;;;;;5.95;4.15;;;;;;;14.86;74.44;100602.97;5089916;28;20034;-29
2022/09/07 03:53:46;;;;;;;8.00;4.07;;;;;;;14.40;75.01;100591.09;5108471;28;20108;-27
2022/09/07 03:56:18;;;;;;;10.82;4.65;;;;;;;14.32;76.86;100615.59;5108455;28;20035;-30
2022/09/07 03:58:45;;;;;;;6.90;4.28;;;;;;;14.43;76.81;100612.13;5090118;28;20096;-27
2022/09/07 04:01:16;;;;;;;6.50;3.70;;;;;;;14.39;75.76;100597.53;5089595;28;20031;-28
2022/09/07 04:03:43;;;;;;;6.65;3.90;;;;;;;14.44;75.52;100620.97;5108342;28;20406;-27
2022/09/07 04:06:09;;;;;;;9.52;4.25;;;;;;;14.29;76.09;100610.69;5089906;28;20027;-29
2022/09/07 04:08:36;;;;;;;8.77;4.78;;;;;;;14.45;75.87;100628.81;5089944;28;20035;-27
2022/09/07 04:11:05;;;;;;;11.20;4.50;;;;;;;14.38;75.55;100609.28;5089339;28;20399;-29
2022/09/07 04:13:31;;;;;;;8.18;4.53;;;;;;;14.27;76.92;100623.53;5088873;28;20042;-31
2022/09/07 04:15:57;;;;;;;11.52;4.53;;;;;;;14.57;75.29;100634.25;5089582;28;20035;-29
2022/09/07 04:18:23;;;;;;;8.52;4.70;;;;;;;14.36;75.87;100624.00;5089444;28;20031;-28
2022/09/07 04:20:49;;;;;;;7.60;4.07;;;;;;;14.63;75.94;100638.69;5089690;28;20151;-28
2022/09/07 04:23:19;;;;;;;6.18;3.67;;;;;;;14.65;76.47;100641.13;5089442;28;20065;-32
2022/09/07 04:25:49;;;;;;;6.13;3.95;;;;;;;14.63;76.33;100651.28;5089359;28;20034;-31
2022/09/07 04:28:16;;;;;;;5.47;3.55;;;;;;;14.70;76.65;100649.31;5089395;28;20032;-27
2022/09/07 04:30:41;;;;;;;6.90;3.60;;;;;;;14.62;76.53;100647.75;5107474;28;20023;-33
2022/09/07 04:33:08;;;;;;;7.95;4.00;;;;;;;14.79;75.85;100650.59;5107615;28;20023;-28
2022/09/07 04:35:40;;;;;;;5.55;3.47;;;;;;;15.04;74.77;100650.38;5108088;28;20027;-29
2022/09/07 04:38:07;;;;;;;7.00;3.80;;;;;;;15.28;75.02;100644.97;5089337;28;20122;-35
2022/09/07 04:40:33;;;;;;;8.70;4.32;;;;;;;15.25;73.82;100632.00;5089493;28;20067;-29
2022/09/07 04:42:58;;;;;;;7.40;4.00;;;;;;;15.32;74.14;100645.31;5107669;28;20565;-27
2022/09/07 04:45:24;;;;;;;6.45;4.20;;;;;;;15.57;73.51;100659.31;5107261;28;20031;-28
2022/09/07 04:47:50;;;;;;;9.95;4.65;;;;;;;15.52;74.21;100659.19;5088994;28;20024;-31
2022/09/07 04:50:17;;;;;;;7.90;4.28;;;;;;;15.38;74.53;100652.44;5107870;28;20111;-27
2022/09/07 04:52:45;;;;;;;6.82;3.92;;;;;;;15.43;74.11;100642.63;5088750;28;20028;-28
2022/09/07 04:55:11;;;;;;;8.35;4.35;;;;;;;15.60;74.23;100666.06;5088952;28;20023;-28
2022/09/07 04:57:38;;;;;;;6.25;4.30;;;;;;;15.48;73.50;100644.59;5107496;28;20047;-29
2022/09/07 05:00:09;;;;;;;6.93;4.00;;;;;;;15.36;73.17;100641.09;5088720;28;20139;-27
2022/09/07 05:02:34;;;;;;;11.98;6.40;;;;;;;15.57;74.18;100669.22;5107568;28;20028;-27
2022/09/07 05:05:00;;;;;;;30.35;13.57;;;;;;;15.56;75.08;100665.72;5107237;28;20043;-31
2022/09/07 05:07:25;;;;;;;19.35;9.45;;;;;;;15.43;75.66;100666.81;5107345;28;20065;-30
2022/09/07 05:09:51;;;;;;;9.73;5.50;;;;;;;15.39;75.85;100667.53;5107301;28;20020;-28
2022/09/07 05:12:17;;;;;;;8.30;4.90;;;;;;;15.39;76.02;100654.91;5071786;28;20172;-32
2022/09/07 05:14:42;;;;;;;6.22;4.63;;;;;;;15.59;75.58;100667.94;5107405;28;20102;-28
2022/09/07 05:17:08;;;;;;;8.10;5.10;;;;;;;15.66;76.03;100663.25;5107319;28;20031;-27
2022/09/07 05:19:33;;;;;;;9.65;4.78;;;;;;;15.90;74.90;100673.97;5107302;28;20020;-29
2022/09/07 05:21:59;;;;;;;10.32;5.15;;;;;;;16.06;73.84;100670.53;5107214;28;20491;-27
2022/09/07 05:24:27;;;;;;;9.55;4.70;;;;;;;15.94;75.08;100660.88;5088807;28;20027;-29
2022/09/07 05:26:53;;;;;;;;;;;;;;;16.13;75.36;100673.06;5111569;28;20030;-29
2022/09/07 05:29:19;;;;;;;7.05;4.55;;;;;;;16.14;75.86;100669.31;5111243;28;19907;-28
2022/09/07 05:31:46;;;;;;;12.95;6.80;;;;;;;16.51;74.72;100671.59;5092893;28;20024;-28
2022/09/07 05:34:12;;;;;;;11.57;6.60;;;;;;;16.46;75.83;100676.88;5093024;28;20038;-31
2022/09/07 05:36:38;;;;;;;8.65;5.82;;;;;;;16.68;74.23;100679.66;5111441;28;20477;-28
2022/09/07 05:39:04;;;;;;;10.85;5.47;;;;;;;16.80;74.68;100658.84;5110951;28;20016;-30
2022/09/07 05:41:30;;;;;;;10.57;4.93;;;;;;;17.14;73.45;100669.66;5092462;28;20039;-28
2022/09/07 05:43:56;;;;;;;8.02;4.65;;;;;;;17.18;73.36;100676.16;5111266;28;20039;-28
2022/09/07 05:46:22;;;;;;;10.43;5.20;;;;;;;17.19;73.08;100653.53;5111214;28;20468;-33
2022/09/07 05:48:47;;;;;;;14.40;5.38;;;;;;;17.48;72.93;100664.16;5092657;28;20079;-31
2022/09/07 05:51:13;;;;;;;11.90;5.70;;;;;;;17.72;72.02;100682.81;5075332;28;20035;-32
2022/09/07 05:53:44;;;;;;;8.65;5.47;;;;;;;17.76;72.28;100663.16;5092282;28;20753;-29
2022/09/07 05:56:10;;;;;;;11.82;5.68;;;;;;;18.06;71.21;100680.78;5092405;28;20043;-29
2022/09/07 05:58:36;;;;;;;6.95;4.28;;;;;;;17.99;70.71;100672.88;5092117;28;20110;-33
2022/09/07 06:01:05;;;;;;;7.72;4.47;;;;;;;18.35;70.50;100675.13;5110581;28;20118;-30
2022/09/07 06:03:34;;;;;;;8.52;4.78;;;;;;;18.26;70.31;100677.47;5110446;28;20075;-31
2022/09/07 06:06:06;;;;;;;8.25;4.85;;;;;;;18.55;69.72;100674.50;5092449;28;20088;-31
2022/09/07 06:08:34;;;;;;;7.78;5.10;;;;;;;18.62;68.76;100677.81;5110482;28;20028;-29
2022/09/07 06:11:06;;;;;;;;;;;;;;;18.59;67.74;100676.44;5092706;28;20059;-30
2022/09/07 06:13:33;;;;;;;9.27;4.60;;;;;;;18.58;68.41;100674.00;5110631;28;19923;-33
2022/09/07 06:16:00;;;;;;;11.68;6.65;;;;;;;18.59;68.89;100664.81;5092088;28;20035;-32
2022/09/07 06:18:30;;;;;;;10.98;6.90;;;;;;;19.09;67.00;100671.69;5092024;28;20028;-27
2022/09/07 06:21:01;;;;;;;8.50;4.88;;;;;;;19.18;66.03;100672.03;5110138;28;20132;-29
2022/09/07 06:23:27;;;;;;;11.05;7.20;;;;;;;19.25;65.24;100673.44;5091892;28;20036;-28
2022/09/07 06:25:52;;;;;;;8.07;4.45;;;;;;;19.32;64.30;100659.66;5110125;28;20034;-31
2022/09/07 06:28:18;;;;;;;13.93;8.10;;;;;;;19.97;62.88;100662.91;5110233;28;20046;-29
2022/09/07 06:30:43;;;;;;;8.73;4.75;;;;;;;19.86;62.99;100656.69;5091702;28;20465;-30
2022/09/07 06:33:09;;;;;;;10.23;5.13;;;;;;;20.27;62.47;100664.06;5110001;28;20032;-28
2022/09/07 06:35:34;;;;;;;7.15;3.75;;;;;;;20.53;60.76;100669.50;5109852;28;20459;-31
2022/09/07 06:38:00;;;;;;;7.15;5.13;;;;;;;20.22;60.73;100655.94;5109357;28;20494;-28
2022/09/07 06:40:25;;;;;;;11.68;7.07;;;;;;;20.37;60.85;100637.00;5109673;28;20020;-30
2022/09/07 06:42:50;;;;;;;10.57;6.75;;;;;;;20.53;60.38;100661.38;5109908;28;20024;-29
2022/09/07 06:45:16;;;;;;;5.82;2.47;;;;;;;20.70;59.97;100670.09;5109512;28;20031;-34
2022/09/07 06:47:41;;;;;;;7.22;3.47;;;;;;;20.34;58.89;100651.06;5089472;28;20103;-28
2022/09/07 06:50:07;;;;;;;4.68;2.30;;;;;;;20.53;57.36;100669.50;5109530;28;20039;-28
2022/09/07 06:52:36;;;;;;;3.75;1.90;;;;;;;20.42;57.31;100677.63;5109407;28;20051;-34
2022/09/07 06:55:03;;;;;;;5.55;2.53;;;;;;;20.60;58.24;100664.66;5091001;28;20092;-31
2022/09/07 06:57:28;;;;;;;5.45;2.67;;;;;;;20.36;58.77;100669.78;5090988;28;20030;-31
2022/09/07 06:59:54;;;;;;;7.82;4.10;;;;;;;20.72;60.38;100681.47;5090791;28;20031;-28
2022/09/07 07:02:19;;;;;;;6.60;2.42;;;;;;;20.66;58.57;100666.28;5109278;28;20545;-30
2022/09/07 07:04:45;;;;;;;4.78;2.30;;;;;;;20.76;59.26;100682.56;5109426;28;20046;-30
2022/09/07 07:07:12;;;;;;;6.32;2.58;;;;;;;20.82;56.90;100686.06;5109142;28;20027;-29
2022/09/07 07:09:38;;;;;;;4.85;2.75;;;;;;;20.85;57.79;100677.38;5109184;28;20130;-28
2022/09/07 07:12:04;;;;;;;5.13;2.85;;;;;;;21.19;58.29;100684.94;5090788;28;20039;-32
2022/09/07 07:14:30;;;;;;;3.65;1.88;;;;;;;21.27;56.51;100692.53;5108841;28;20039;-31
2022/09/07 07:16:55;;;;;;;4.63;1.95;;;;;;;21.01;57.37;100691.75;5108771;28;20034;-31
2022/09/07 07:19:21;;;;;;;6.03;2.92;;;;;;;20.95;58.52;100668.44;5090130;28;20035;-29
2022/09/07 07:21:46;;;;;;;5.43;2.58;;;;;;;21.28;57.48;100694.94;5109146;28;20031;-30
2022/09/07 07:24:11;;;;;;;9.18;2.90;;;;;;;21.27;56.26;100701.47;5108870;28;20031;-31
2022/09/07 07:26:39;;;;;;;5.20;2.88;;;;;;;21.36;57.28;100698.19;5108914;28;20609;-33
2022/09/07 07:29:04;;;;;;;5.13;2.97;;;;;;;21.44;55.94;100706.59;5090252;28;20082;-33
2022/09/07 07:31:32;;;;;;;6.22;2.90;;;;;;;21.67;55.58;100693.50;5108564;28;20287;-28
2022/09/07 07:33:57;;;;;;;6.88;2.47;;;;;;;21.91;56.29;100698.28;5108613;28;20054;-31
2022/09/07 07:36:25;;;;;;;5.93;3.00;;;;;;;21.93;56.72;100679.81;5108540;28;20047;-29
2022/09/07 07:38:53;;;;;;;7.40;3.55;;;;;;;22.41;55.24;100697.22;5090408;28;20118;-28
2022/09/07 07:41:21;;;;;;;6.57;3.22;;;;;;;22.49;55.35;100690.34;5108486;28;20046;-28
2022/09/07 07:43:47;;;;;;;8.65;3.80;;;;;;;22.20;53.65;100696.47;5108734;28;20028;-27
2022/09/07 07:46:14;;;;;;;6.03;3.50;;;;;;;22.25;55.44;100685.63;5108307;28;20035;-28
2022/09/07 07:48:40;;;;;;;6.43;3.55;;;;;;;22.50;55.46;100710.19;5089712;28;20518;-28
2022/09/07 07:51:08;;;;;;;8.80;3.55;;;;;;;22.77;55.25;100679.78;5089601;28;20035;-29
2022/09/07 07:53:35;;;;;;;9.25;3.65;;;;;;;22.53;54.03;100698.75;5090080;28;20122;-28
2022/09/07 07:56:02;;;;;;;9.48;3.72;;;;;;;22.60;52.90;100685.66;5108357;28;20047;-32
2022/09/07 07:58:31;;;;;;;6.90;3.42;;;;;;;22.61;54.28;100692.69;5089874;28;20131;-30
2022/09/07 08:01:10;;;;;;;7.77;3.47;;;;;;;22.94;52.16;100677.44;5089912;28;20038;-31
2022/09/07 08:03:38;;;;;;;6.05;3.38;;;;;;;22.79;51.76;100696.63;5089771;28;20228;-31
2022/09/07 08:06:06;;;;;;;5.90;3.55;;;;;;;22.74;52.95;100681.19;5089787;28;20024;-28
2022/09/07 08:08:34;;;;;;;6.25;2.95;;;;;;;22.77;52.26;100667.00;5089607;28;20642;-30
2022/09/07 08:11:19;;;;;;;6.97;2.83;;;;;;;22.80;52.85;100692.81;5089574;28;20032;-31
2022/09/07 08:13:46;;;;;;;5.05;2.60;;;;;;;23.14;52.13;100690.06;5107904;28;20043;-29
2022/09/07 08:16:12;;;;;;;6.28;2.83;;;;;;;23.27;51.90;100675.78;5089517;28;20462;-28
2022/09/07 08:18:39;;;;;;;8.15;3.03;;;;;;;23.52;49.51;100692.94;5108018;28;20035;-28
2022/09/07 08:21:08;;;;;;;5.43;3.05;;;;;;;23.84;48.82;100667.78;5089347;28;20032;-31
2022/09/07 08:23:34;;;;;;;3.40;1.85;;;;;;;23.46;48.42;100664.16;5089359;28;20058;-28
2022/09/07 08:26:00;;;;;;;5.55;2.30;;;;;;;23.72;48.47;100663.81;5107767;28;20067;-31
2022/09/07 08:28:27;;;;;;;5.13;2.25;;;;;;;23.74;47.14;100677.94;5107428;28;20053;-30
2022/09/07 08:30:54;;;;;;;4.80;2.20;;;;;;;23.83;48.06;100665.34;5089145;28;20031;-28
2022/09/07 08:33:20;;;;;;;5.03;2.22;;;;;;;24.17;48.59;100669.75;5089018;28;20039;-29
2022/09/07 08:35:59;;;;;;;5.80;2.75;;;;;;;24.40;49.41;100660.69;5107749;28;20027;-32
2022/09/07 08:38:27;;;;;;;6.25;3.05;;;;;;;24.32;45.57;100666.81;5088933;28;20036;-35
2022/09/07 08:40:53;;;;;;;3.60;2.20;;;;;;;24.17;45.98;100664.28;5088921;28;20027;-29
2022/09/07 08:43:31;;;;;;;5.50;1.98;;;;;;;24.24;46.09;100670.19;5107311;28;20023;-30
2022/09/07 08:46:05;;;;;;;4.25;2.20;;;;;;;24.33;47.51;100652.06;5107494;28;20027;-32
2022/09/07 08:48:33;;;;;;;4.13;2.33;;;;;;;24.26;46.96;100643.47;5089007;28;20035;-31
2022/09/07 08:51:31;;;;;;;5.47;2.20;;;;;;;24.62;44.99;100664.69;5089069;28;20491;-29
2022/09/07 08:53:57;;;;;;;4.75;2.38;;;;;;;24.94;44.10;100661.16;5106723;28;20039;-29
2022/09/07 08:56:34;;;;;;;6.57;1.95;;;;;;;24.90;42.75;100665.59;5107408;28;20026;-28
2022/09/07 08:59:05;;;;;;;5.57;2.07;;;;;;;24.93;41.15;100647.78;5107655;28;20038;-30
2022/09/07 09:01:36;;;;;;;3.22;1.90;;;;;;;24.80;41.48;100652.13;5088217;28;20035;-28
2022/09/07 09:04:03;;;;;;;3.65;1.85;;;;;;;25.09;39.53;100640.97;5088780;28;20083;-29
2022/09/07 09:06:41;;;;;;;5.67;2.40;;;;;;;25.00;37.86;100650.94;5088998;28;20034;-32
2022/09/07 09:09:25;;;;;;;4.93;1.85;;;;;;;24.74;38.90;100656.84;5088546;28;20111;-29
2022/09/07 09:12:16;;;;;;;4.22;1.95;;;;;;;25.25;38.51;100647.78;5106991;28;20032;-29
2022/09/07 09:14:41;;;;;;;5.28;2.00;;;;;;;25.21;38.03;100641.31;5106463;28;20039;-29
2022/09/07 09:17:27;;;;;;;5.07;2.13;;;;;;;25.40;38.20;100643.91;5088502;28;20035;-30
2022/09/07 09:19:58;;;;;;;4.18;1.95;;;;;;;25.00;37.51;100640.03;5107204;28;20020;-31
2022/09/07 09:22:27;;;;;;;5.90;1.90;;;;;;;24.93;36.89;100621.34;5106820;28;20032;-29
2022/09/07 09:25:04;;;;;;;5.05;2.35;;;;;;;25.31;36.55;100631.28;5107168;28;20105;-30
2022/09/07 09:27:30;;;;;;;4.10;2.05;;;;;;;25.54;37.97;100622.06;5106875;28;20233;-29
2022/09/07 09:29:55;;;;;;;5.05;2.10;;;;;;;25.80;36.66;100610.56;5106965;28;20024;-30
2022/09/07 09:32:35;;;;;;;6.95;2.20;;;;;;;26.19;36.54;100628.28;5088423;28;20046;-30
2022/09/07 09:35:11;;;;;;;5.20;2.00;;;;;;;26.16;35.88;100613.31;5088236;28;20557;-30
2022/09/07 09:37:38;;;;;;;5.68;2.13;;;;;;;26.32;36.43;100600.06;5088350;28;20023;-28
2022/09/07 09:40:06;;;;;;;6.35;2.22;;;;;;;26.09;36.73;100623.06;5088446;28;20027;-31
2022/09/07 09:42:34;;;;;;;4.45;1.98;;;;;;;26.18;38.21;100622.00;5088562;28;20073;-28
2022/09/07 09:45:15;;;;;;;4.20;2.13;;;;;;;26.63;35.79;100602.06;5106974;28;20035;-28
2022/09/07 09:47:48;;;;;;;5.50;2.10;;;;;;;26.88;34.64;100610.69;5088451;28;20039;-30
2022/09/07 09:50:24;;;;;;;4.32;2.00;;;;;;;27.42;33.21;100619.59;5088485;28;20768;-33
2022/09/07 09:52:51;;;;;;;6.32;2.45;;;;;;;27.15;34.20;100610.47;5088317;28;20032;-29
2022/09/07 09:55:26;;;;;;;3.07;2.10;;;;;;;27.20;33.45;100596.66;5106638;28;20491;-29
2022/09/07 09:57:57;;;;;;;4.07;2.10;;;;;;;27.09;33.69;100606.25;5088028;28;20280;-37
2022/09/07 10:00:24;;;;;;;5.22;2.10;;;;;;;27.05;34.68;100599.81;5088547;28;20082;-30
2022/09/07 10:03:14;;;;;;;4.57;2.00;;;;;;;26.94;33.82;100593.00;5088266;28;20117;-28
2022/09/07 10:05:45;;;;;;;10.00;2.80;;;;;;;27.17;35.51;100578.09;5106850;28;20098;-32
2022/09/07 10:08:30;;;;;;;3.55;2.25;;;;;;;26.84;33.53;100589.41;5087979;28;20039;-28
2022/09/07 10:11:05;;;;;;;5.15;2.10;;;;;;;26.62;32.06;100565.69;5088962;28;20511;-30
2022/09/07 10:13:54;;;;;;;5.15;2.20;;;;;;;27.00;33.72;100584.34;5092108;28;20038;-28
2022/09/07 10:16:43;;;;;;;5.13;2.42;;;;;;;27.32;33.77;100578.81;5091812;28;20096;-28
2022/09/07 10:19:25;;;;;;;3.47;2.03;;;;;;;27.61;33.55;100581.75;5110253;28;20024;-31
2022/09/07 10:21:56;;;;;;;6.78;2.20;;;;;;;27.53;31.36;100571.59;5091950;28;20043;-28
2022/09/07 10:24:25;;;;;;;4.10;2.08;;;;;;;27.38;32.09;100567.41;5091464;28;20118;-28
2022/09/07 10:26:51;;;;;;;3.60;2.00;;;;;;;27.61;34.31;100553.56;5091510;28;20027;-29
2022/09/07 10:29:33;;;;;;;3.33;2.00;;;;;;;27.74;33.24;100576.44;5109606;28;20080;-31
2022/09/07 10:32:21;;;;;;;3.10;1.73;;;;;;;27.99;32.20;100566.63;5110119;28;20483;-29
2022/09/07 10:35:21;;;;;;;4.40;1.92;;;;;;;28.07;31.93;100559.53;5109938;28;20031;-29
2022/09/07 10:37:58;;;;;;;4.82;2.17;;;;;;;28.00;32.83;100552.59;5091439;28;20032;-29
2022/09/07 10:40:38;;;;;;;5.00;2.00;;;;;;;27.75;33.03;100545.19;5091421;28;20023;-28
2022/09/07 10:43:33;;;;;;;4.50;2.20;;;;;;;27.78;32.63;100550.81;5090938;28;20059;-29
2022/09/07 10:46:07;;;;;;;3.95;1.88;;;;;;;28.25;33.77;100539.16;5090451;28;20039;-34
2022/09/07 10:48:39;;;;;;;5.45;2.28;;;;;;;28.07;29.81;100554.03;5109577;28;20027;-29
2022/09/07 10:51:36;;;;;;;5.68;2.00;;;;;;;28.22;28.70;100545.31;5109442;28;20031;-31
2022/09/07 10:54:22;;;;;;;4.63;2.33;;;;;;;28.77;30.75;100536.28;5089978;28;20051;-35
2022/09/07 10:57:06;;;;;;;5.07;2.88;;;;;;;29.21;28.69;100536.84;5091306;28;20031;-32
2022/09/07 11:00:11;;;;;;;4.80;2.33;;;;;;;29.42;28.66;100538.78;5091058;28;20034;-33
2022/09/07 11:03:18;;;;;;;4.13;2.20;;;;;;;29.10;29.13;100540.31;5109448;28;20031;-28
2022/09/07 11:05:49;;;;;;;;;;;;;;;28.74;29.64;100530.63;5026452;28;20046;-31
2022/09/07 11:08:33;;;;;;;3.50;2.10;;;;;;;28.88;29.45;100535.91;5094673;28;19930;-28
2022/09/07 11:11:04;;;;;;;5.50;2.00;;;;;;;28.23;30.54;100535.94;5109424;28;20019;-27
2022/09/07 11:13:35;;;;;;;4.80;2.22;;;;;;;28.87;29.75;100517.81;5090958;28;20031;-28
2022/09/07 11:16:06;;;;;;;3.35;2.28;;;;;;;29.33;30.44;100503.16;5109535;28;20119;-32
2022/09/07 11:18:47;;;;;;;4.10;2.20;;;;;;;29.15;30.42;100515.41;5090744;28;20514;-29
2022/09/07 11:21:16;;;;;;;4.38;2.20;;;;;;;29.24;29.31;100510.66;5090080;28;20086;-29
2022/09/07 11:24:08;;;;;;;4.78;2.35;;;;;;;28.74;28.99;100520.44;5108430;28;20027;-29
2022/09/07 11:26:55;;;;;;;4.82;2.33;;;;;;;29.41;30.61;100517.97;5109098;28;20051;-29
2022/09/07 11:29:23;;;;;;;6.40;2.20;;;;;;;29.46;30.09;100517.75;5090351;28;20353;-33
2022/09/07 11:31:58;;;;;;;4.25;2.17;;;;;;;29.39;29.06;100506.50;5109241;28;20493;-30
2022/09/07 11:34:30;;;;;;;4.82;2.58;;;;;;;29.79;28.36;100492.28;5090631;28;20038;-29
2022/09/07 11:37:06;;;;;;;5.18;2.25;;;;;;;29.79;30.20;100500.50;5090494;28;20039;-31
2022/09/07 11:39:43;;;;;;;7.18;2.20;;;;;;;29.78;29.80;100496.19;5108525;28;20097;-28
2022/09/07 11:42:27;;;;;;;3.53;2.13;;;;;;;29.36;28.76;100496.19;5108466;28;20487;-32